PWSweather.com
Personal Weather Stations
Station Observations
KPAEXPOR2
Wellington Estates, Export, PA 15632

Wellington EstatesExport, PA 15632

Lat: 40.446, Lon: -79.592

Elevation: 1286

Station Type: PWS1000-TD

http://www.westmorelandweather.com

Latest ConditionsUpdated 5:15:00 PM EST Sunday, Jan 20, 2019
Currently Today's Max Today's Min Today's Average
Temperature 13.5°F-10.3°C 37.1°F2.8°C 13.5°F-10.3°C 24.6°F-4.1°C
Dew Point -17.5°F-27.5°C 31.2°F-0.4°C -17.5°F-27.5°C 12.6°F-10.8°C
Winds 6.0 mph WNW9.7 kmh WNW 9.0 mph -14.5 kmh - - 5.7 mph 9.2 kmh
Wind Gusts 9.2 mph14.8 kmh 17.4 mph28.0 kmh - -
Humidity 23% 81% 23% 63%
Pressure 30.09 in1019.0 mb 30.09 in1019.0 mb 29.50 in999.0 mb -
Precipitation - 0.18 in4.6 mm - -
Hour Temp Dew Point Humidity Winds Wind Gusts Pressure Precip Precip Rate Daily Precip Total
05:15 PM 13.5°F-10.3°C -17.5°F-27.5°C 23% 6.0 mph WNW9.7 kmh WNW 9.2 mph14.8 kmh 30.09 in1019.0 mb 0.00 in0.0 mm 0.00 in0.0 mm 0.18 in4.6 mm
05:00 PM 14.4°F-9.8°C -15.9°F-26.6°C 24% 7.2 mph S11.6 kmh S 8.3 mph13.4 kmh 30.07 in1018.3 mb 0.00 in0.0 mm 0.00 in0.0 mm 0.18 in4.6 mm
04:45 PM 15.0°F-9.4°C -15.4°F-26.3°C 24% 8.6 mph ENE13.8 kmh ENE 14.5 mph23.3 kmh 30.07 in1018.3 mb 0.00 in0.0 mm 0.00 in0.0 mm 0.18 in4.6 mm
04:30 PM 16.6°F-8.6°C -14.8°F-26.0°C 23% 8.4 mph N13.5 kmh N 13.0 mph20.9 kmh 30.06 in1017.9 mb 0.00 in0.0 mm 0.00 in0.0 mm 0.18 in4.6 mm
04:15 PM 18.0°F-7.8°C -11.2°F-24.0°C 26% 6.3 mph NE10.1 kmh NE 11.4 mph18.3 kmh 30.04 in1017.3 mb 0.00 in0.0 mm 0.00 in0.0 mm 0.18 in4.6 mm
04:00 PM 18.4°F-7.6°C -10.8°F-23.8°C 26% 7.5 mph SW12.1 kmh SW 11.4 mph18.3 kmh 30.04 in1017.3 mb 0.00 in0.0 mm 0.00 in0.0 mm 0.18 in4.6 mm
03:45 PM 20.4°F-6.4°C -7.6°F-22.0°C 28% 8.2 mph NE13.2 kmh NE 12.1 mph19.5 kmh 30.03 in1016.9 mb 0.00 in0.0 mm 0.00 in0.0 mm 0.18 in4.6 mm
03:30 PM 21.1°F-6.1°C -4.9°F-20.5°C 31% 7.3 mph N11.7 kmh N 14.5 mph23.3 kmh 30.02 in1016.6 mb 0.00 in0.0 mm 0.00 in0.0 mm 0.18 in4.6 mm
03:15 PM 21.1°F-6.1°C -3.6°F-19.8°C 33% 6.8 mph E10.9 kmh E 9.2 mph14.8 kmh 30.01 in1016.3 mb 0.00 in0.0 mm 0.00 in0.0 mm 0.18 in4.6 mm
03:00 PM 18.0°F-7.8°C -5.7°F-20.9°C 34% 8.4 mph NW13.5 kmh NW 12.1 mph19.5 kmh 30.01 in1016.3 mb 0.00 in0.0 mm 0.00 in0.0 mm 0.18 in4.6 mm
02:45 PM 18.2°F-7.7°C -4.9°F-20.5°C 35% 7.9 mph W12.7 kmh W 12.1 mph19.5 kmh 30.01 in1016.3 mb 0.00 in0.0 mm 0.00 in0.0 mm 0.18 in4.6 mm
02:30 PM 20.9°F-6.2°C -0.2°F-17.9°C 39% 6.2 mph NNW10.0 kmh NNW 9.8 mph15.8 kmh 30.00 in1015.9 mb 0.00 in0.0 mm 0.00 in0.0 mm 0.18 in4.6 mm
02:15 PM 19.7°F-6.8°C -0.8°F-18.2°C 40% 6.7 mph NW10.8 kmh NW 13.0 mph20.9 kmh 29.99 in1015.6 mb 0.00 in0.0 mm 0.00 in0.0 mm 0.18 in4.6 mm
02:00 PM 19.7°F-6.8°C 0.2°F-17.7°C 42% 6.5 mph NW10.5 kmh NW 10.7 mph17.2 kmh 29.98 in1015.2 mb 0.00 in0.0 mm 0.00 in0.0 mm 0.18 in4.6 mm
01:45 PM 20.0°F-6.7°C 3.4°F-15.9°C 48% 5.2 mph S8.4 kmh S 9.2 mph14.8 kmh 29.98 in1015.2 mb 0.00 in0.0 mm 0.00 in0.0 mm 0.18 in4.6 mm
01:30 PM 20.0°F-6.7°C 3.9°F-15.6°C 49% 9.0 mph SE14.5 kmh SE 17.4 mph28.0 kmh 29.97 in1014.9 mb 0.00 in0.0 mm 0.00 in0.0 mm 0.18 in4.6 mm
01:15 PM 21.3°F-5.9°C 8.0°F-13.3°C 56% 7.1 mph ENE11.4 kmh ENE 12.1 mph19.5 kmh 29.97 in1014.9 mb 0.00 in0.0 mm 0.00 in0.0 mm 0.18 in4.6 mm
01:00 PM 18.2°F-7.7°C 5.1°F-14.9°C 56% 8.0 mph SE12.9 kmh SE 11.4 mph18.3 kmh 29.96 in1014.6 mb 0.00 in0.0 mm 0.00 in0.0 mm 0.18 in4.6 mm
12:45 PM 18.4°F-7.6°C 5.7°F-14.6°C 57% 5.8 mph SW9.3 kmh SW 7.6 mph12.2 kmh 29.96 in1014.6 mb 0.00 in0.0 mm 0.00 in0.0 mm 0.18 in4.6 mm
12:30 PM 19.1°F-7.2°C 6.4°F-14.2°C 57% 4.3 mph E6.9 kmh E 8.3 mph13.4 kmh 29.95 in1014.2 mb 0.00 in0.0 mm 0.00 in0.0 mm 0.18 in4.6 mm
12:15 PM 18.6°F-7.4°C 5.9°F-14.5°C 57% 6.1 mph E9.8 kmh E 10.7 mph17.2 kmh 29.95 in1014.2 mb 0.00 in0.0 mm 0.00 in0.0 mm 0.18 in4.6 mm
12:00 PM 18.6°F-7.4°C 5.9°F-14.5°C 57% 5.5 mph NNE8.9 kmh NNE 9.2 mph14.8 kmh 29.95 in1014.2 mb 0.00 in0.0 mm 0.00 in0.0 mm 0.18 in4.6 mm
11:45 AM 18.8°F-7.3°C 5.6°F-14.7°C 56% 7.2 mph ESE11.6 kmh ESE 9.8 mph15.8 kmh 29.95 in1014.2 mb 0.00 in0.0 mm 0.00 in0.0 mm 0.18 in4.6 mm
11:30 AM 19.3°F-7.1°C 6.1°F-14.4°C 56% 8.2 mph ENE13.2 kmh ENE 11.4 mph18.3 kmh 29.95 in1014.2 mb 0.00 in0.0 mm 0.00 in0.0 mm 0.18 in4.6 mm
11:15 AM 19.1°F-7.2°C 7.1°F-13.8°C 59% 7.5 mph NW12.1 kmh NW 13.0 mph20.9 kmh 29.94 in1013.9 mb 0.00 in0.0 mm 0.00 in0.0 mm 0.18 in4.6 mm
11:00 AM 18.2°F-7.7°C 7.0°F-13.9°C 61% 6.3 mph S10.1 kmh S 10.7 mph17.2 kmh 29.94 in1013.9 mb 0.00 in0.0 mm 0.00 in0.0 mm 0.18 in4.6 mm
10:45 AM 18.0°F-7.8°C 7.2°F-13.8°C 62% 3.7 mph SE6.0 kmh SE 8.3 mph13.4 kmh 29.93 in1013.5 mb 0.00 in0.0 mm 0.00 in0.0 mm 0.18 in4.6 mm
10:30 AM 17.5°F-8.1°C 6.7°F-14.1°C 62% 5.1 mph SSW8.2 kmh SSW 8.3 mph13.4 kmh 29.93 in1013.5 mb 0.00 in0.0 mm 0.00 in0.0 mm 0.18 in4.6 mm
10:15 AM 17.5°F-8.1°C 7.0°F-13.9°C 63% 3.5 mph SE5.6 kmh SE 5.4 mph8.7 kmh 29.92 in1013.2 mb 0.00 in0.0 mm 0.00 in0.0 mm 0.18 in4.6 mm
10:00 AM 17.3°F-8.2°C 6.9°F-13.9°C 63% 6.0 mph NNE9.7 kmh NNE 9.2 mph14.8 kmh 29.91 in1012.9 mb 0.00 in0.0 mm 0.00 in0.0 mm 0.18 in4.6 mm
09:45 AM 17.0°F-8.3°C 6.5°F-14.2°C 63% 6.4 mph NNE10.3 kmh NNE 8.3 mph13.4 kmh 29.89 in1012.2 mb 0.00 in0.0 mm 0.00 in0.0 mm 0.18 in4.6 mm
09:30 AM 17.3°F-8.2°C 7.6°F-13.6°C 65% 7.6 mph N12.2 kmh N 13.0 mph20.9 kmh 29.88 in1011.9 mb 0.00 in0.0 mm 0.00 in0.0 mm 0.18 in4.6 mm
09:15 AM 17.7°F-7.9°C 9.2°F-12.7°C 69% 5.2 mph NNE8.4 kmh NNE 7.6 mph12.2 kmh 29.87 in1011.5 mb 0.00 in0.0 mm 0.00 in0.0 mm 0.18 in4.6 mm
09:00 AM 17.3°F-8.2°C 9.2°F-12.7°C 70% 6.5 mph SE10.5 kmh SE 11.4 mph18.3 kmh 29.86 in1011.2 mb 0.00 in0.0 mm 0.00 in0.0 mm 0.18 in4.6 mm
08:45 AM 18.4°F-7.6°C 10.6°F-11.9°C 71% 6.9 mph N11.1 kmh N 11.4 mph18.3 kmh 29.84 in1010.5 mb 0.00 in0.0 mm 0.00 in0.0 mm 0.18 in4.6 mm
08:30 AM 18.4°F-7.6°C 10.6°F-11.9°C 71% 5.8 mph NE9.3 kmh NE 9.8 mph15.8 kmh 29.82 in1009.8 mb 0.00 in0.0 mm 0.00 in0.0 mm 0.18 in4.6 mm
08:15 AM 18.4°F-7.6°C 10.6°F-11.9°C 71% 8.4 mph NE13.5 kmh NE 12.1 mph19.5 kmh 29.80 in1009.1 mb 0.00 in0.0 mm 0.00 in0.0 mm 0.18 in4.6 mm
08:00 AM 19.1°F-7.2°C 11.3°F-11.5°C 71% 6.5 mph N10.5 kmh N 15.2 mph24.5 kmh 29.79 in1008.8 mb 0.00 in0.0 mm 0.00 in0.0 mm 0.18 in4.6 mm
07:45 AM 20.2°F-6.6°C 12.6°F-10.8°C 72% 4.3 mph SSE6.9 kmh SSE 8.3 mph13.4 kmh 29.77 in1008.1 mb 0.00 in0.0 mm 0.00 in0.0 mm 0.18 in4.6 mm
07:30 AM 20.2°F-6.6°C 12.3°F-10.9°C 71% 7.9 mph NW12.7 kmh NW 13.0 mph20.9 kmh 29.75 in1007.5 mb 0.00 in0.0 mm 0.00 in0.0 mm 0.18 in4.6 mm
07:15 AM 20.9°F-6.2°C 13.6°F-10.2°C 73% 6.1 mph N9.8 kmh N 11.4 mph18.3 kmh 29.73 in1006.8 mb 0.00 in0.0 mm 0.00 in0.0 mm 0.18 in4.6 mm
07:00 AM 21.1°F-6.1°C 13.8°F-10.1°C 73% 6.7 mph NE10.8 kmh NE 9.8 mph15.8 kmh 29.72 in1006.4 mb 0.00 in0.0 mm 0.00 in0.0 mm 0.18 in4.6 mm
06:45 AM 22.0°F-5.6°C 14.7°F-9.6°C 73% 6.9 mph NNW11.1 kmh NNW 12.1 mph19.5 kmh 29.68 in1005.1 mb 0.00 in0.0 mm 0.00 in0.0 mm 0.18 in4.6 mm
06:30 AM 23.3°F-4.8°C 16.2°F-8.8°C 74% 7.0 mph NNW11.3 kmh NNW 10.7 mph17.2 kmh 29.66 in1004.4 mb 0.00 in0.0 mm 0.00 in0.0 mm 0.18 in4.6 mm
06:15 AM 24.2°F-4.3°C 17.1°F-8.3°C 74% 6.2 mph E10.0 kmh E 13.6 mph21.9 kmh 29.64 in1003.7 mb 0.00 in0.0 mm 0.00 in0.0 mm 0.18 in4.6 mm
06:00 AM 26.3°F-3.2°C 19.8°F-6.8°C 76% 5.2 mph S8.4 kmh S 6.9 mph11.1 kmh 29.62 in1003.0 mb 0.00 in0.0 mm 0.00 in0.0 mm 0.18 in4.6 mm
05:45 AM 28.1°F-2.2°C 21.8°F-5.7°C 77% 8.0 mph NW12.9 kmh NW 13.0 mph20.9 kmh 29.59 in1002.0 mb 0.00 in0.0 mm 0.00 in0.0 mm 0.18 in4.6 mm
05:30 AM 29.6°F-1.3°C 23.5°F-4.7°C 78% 5.6 mph NNE9.0 kmh NNE 9.8 mph15.8 kmh 29.57 in1001.4 mb 0.00 in0.0 mm 0.00 in0.0 mm 0.18 in4.6 mm
05:15 AM 31.0°F-0.6°C 24.9°F-3.9°C 78% 5.4 mph NNW8.7 kmh NNW 8.3 mph13.4 kmh 29.56 in1001.0 mb 0.01 in0.3 mm 0.00 in0.0 mm 0.18 in4.6 mm
05:00 AM 32.8°F0.4°C 27.0°F-2.8°C 79% 5.7 mph ENE9.2 kmh ENE 11.4 mph18.3 kmh 29.54 in1000.3 mb 0.02 in0.5 mm 0.00 in0.0 mm 0.18 in4.6 mm
04:45 AM 33.5°F0.8°C 28.0°F-2.2°C 80% 5.3 mph WNW8.5 kmh WNW 15.2 mph24.5 kmh 29.54 in1000.3 mb 0.06 in1.5 mm 0.00 in0.0 mm 0.18 in4.6 mm
04:30 AM 34.2°F1.2°C 28.7°F-1.8°C 80% 6.0 mph N9.7 kmh N 8.3 mph13.4 kmh 29.50 in999.0 mb 0.08 in2.0 mm 0.04 in1.0 mm 0.18 in4.6 mm
04:15 AM 34.6°F1.4°C 29.1°F-1.6°C 80% 5.8 mph NNE9.3 kmh NNE 9.8 mph15.8 kmh 29.50 in999.0 mb 0.07 in1.8 mm 0.00 in0.0 mm 0.17 in4.3 mm
04:00 AM 35.0°F1.7°C 29.4°F-1.4°C 80% 5.8 mph NNE9.3 kmh NNE 10.7 mph17.2 kmh 29.50 in999.0 mb 0.08 in2.0 mm 0.01 in0.3 mm 0.15 in3.8 mm
03:45 AM 35.5°F1.9°C 30.2°F-1.0°C 81% 4.3 mph N6.9 kmh N 6.0 mph9.7 kmh 29.50 in999.0 mb 0.07 in1.8 mm 0.04 in1.0 mm 0.12 in3.0 mm
03:30 AM 35.7°F2.1°C 30.1°F-1.1°C 80% 3.9 mph NNW6.3 kmh NNW 8.3 mph13.4 kmh 29.50 in999.0 mb 0.06 in1.5 mm 0.00 in0.0 mm 0.09 in2.3 mm
03:15 AM 35.9°F2.2°C 30.3°F-0.9°C 80% 2.6 mph N4.2 kmh N 4.5 mph7.2 kmh 29.50 in999.0 mb 0.06 in1.5 mm 0.08 in2.0 mm 0.09 in2.3 mm
03:00 AM 35.9°F2.2°C 30.3°F-0.9°C 80% 3.4 mph N5.5 kmh N 5.4 mph8.7 kmh 29.50 in999.0 mb 0.04 in1.0 mm 0.04 in1.0 mm 0.07 in1.8 mm
02:45 AM 36.0°F2.2°C 30.5°F-0.8°C 80% 3.6 mph NNW5.8 kmh NNW 4.5 mph7.2 kmh 29.50 in999.0 mb 0.01 in0.3 mm 0.00 in0.0 mm 0.05 in1.3 mm
02:30 AM 36.2°F2.3°C 30.6°F-0.8°C 80% 2.8 mph N4.5 kmh N 3.8 mph6.1 kmh 29.50 in999.0 mb 0.01 in0.3 mm 0.00 in0.0 mm 0.04 in1.0 mm
02:15 AM 36.2°F2.3°C 30.3°F-0.9°C 79% 3.9 mph NNW6.3 kmh NNW 5.4 mph8.7 kmh 29.50 in999.0 mb 0.02 in0.5 mm 0.00 in0.0 mm 0.04 in1.0 mm
02:00 AM 36.6°F2.6°C 30.7°F-0.7°C 79% 3.2 mph N5.1 kmh N 5.4 mph8.7 kmh 29.50 in999.0 mb 0.02 in0.5 mm 0.00 in0.0 mm 0.04 in1.0 mm
01:45 AM 36.8°F2.7°C 30.9°F-0.6°C 79% 2.9 mph N4.7 kmh N 3.8 mph6.1 kmh 29.51 in999.3 mb 0.02 in0.5 mm 0.04 in1.0 mm 0.04 in1.0 mm
01:30 AM 36.9°F2.7°C 31.0°F-0.6°C 79% 3.0 mph N4.8 kmh N 4.5 mph7.2 kmh 29.51 in999.3 mb 0.01 in0.3 mm 0.04 in1.0 mm 0.02 in0.5 mm
01:15 AM 37.1°F2.8°C 31.2°F-0.4°C 79% 2.2 mph N3.5 kmh N 3.8 mph6.1 kmh 29.52 in999.7 mb 0.00 in0.0 mm 0.00 in0.0 mm 0.01 in0.3 mm
01:00 AM 37.1°F2.8°C 31.2°F-0.4°C 79% 2.0 mph N3.2 kmh N 3.8 mph6.1 kmh 29.53 in1000.0 mb 0.01 in0.3 mm 0.00 in0.0 mm 0.01 in0.3 mm
12:45 AM 37.1°F2.8°C 31.2°F-0.4°C 79% 1.7 mph E2.7 kmh E 2.2 mph3.5 kmh 29.54 in1000.3 mb 0.02 in0.5 mm 0.00 in0.0 mm 0.01 in0.3 mm
12:30 AM 37.1°F2.8°C 31.2°F-0.4°C 79% 2.4 mph NNE3.9 kmh NNE 4.5 mph7.2 kmh 29.55 in1000.7 mb 0.05 in1.3 mm 0.00 in0.0 mm 0.01 in0.3 mm
12:15 AM 37.1°F2.8°C 31.2°F-0.4°C 79% 4.1 mph N6.6 kmh N 7.6 mph12.2 kmh 29.57 in1001.4 mb 0.07 in1.8 mm 0.00 in0.0 mm 0.01 in0.3 mm
12:00 AM 37.1°F2.8°C 31.2°F-0.4°C 79% 4.3 mph NE6.9 kmh NE 6.0 mph9.7 kmh 29.59 in1002.0 mb 0.07 in1.8 mm 0.00 in0.0 mm 0.07 in1.8 mm